Time;durP1;ratioP1;P1;durP2;ratioP2;P2;SDS_P1;SDS_P2;PMS_P1;PMS_P2;Temp;Humidity;BMP_temperature;BMP_pressure;BME280_temperature;BME280_humidity;BME280_pressure;Samples;Min_cycle;Max_cycle;Signal;HPM_P1;HPM_P2
2022/09/27 00:01:06;;;;;;;0.60;0.60;;;9.60;99.90;;;;;;5094568;28;20173;-75
2022/09/27 00:03:31;;;;;;;0.53;0.53;;;9.60;99.90;;;;;;5094425;28;20177;-75
2022/09/27 00:06:01;;;;;;;0.50;0.50;;;9.60;99.90;;;;;;5094542;28;20518;-75
2022/09/27 00:08:26;;;;;;;0.50;0.50;;;9.60;99.90;;;;;;5093616;28;20236;-76
2022/09/27 00:10:59;;;;;;;0.50;0.50;;;9.60;99.90;;;;;;5094242;28;20653;-75
2022/09/27 00:13:24;;;;;;;0.60;0.60;;;9.50;99.90;;;;;;5094424;28;20184;-75
2022/09/27 00:15:56;;;;;;;0.70;0.70;;;9.60;99.90;;;;;;5094464;28;20174;-75
2022/09/27 00:18:21;;;;;;;0.60;0.60;;;9.60;99.90;;;;;;5093592;28;20719;-74
2022/09/27 00:20:47;;;;;;;0.50;0.50;;;9.50;99.90;;;;;;5094291;28;20166;-75
2022/09/27 00:23:13;;;;;;;0.50;0.50;;;9.60;99.90;;;;;;5093832;28;20201;-74
2022/09/27 00:25:38;;;;;;;0.60;0.60;;;9.50;99.90;;;;;;5094068;28;20173;-74
2022/09/27 00:28:04;;;;;;;0.60;0.60;;;9.50;99.90;;;;;;5093537;28;20198;-75
2022/09/27 00:30:29;;;;;;;0.50;0.50;;;9.50;99.90;;;;;;5093833;28;20170;-74
2022/09/27 00:32:55;;;;;;;0.60;0.60;;;9.60;99.90;;;;;;5093725;28;20578;-74
2022/09/27 00:35:20;;;;;;;0.50;0.50;;;9.50;99.90;;;;;;5093783;28;20209;-75
2022/09/27 00:37:47;;;;;;;0.60;0.60;;;9.60;99.90;;;;;;5120066;22;20235;-81
2022/09/27 00:40:14;;;;;;;0.50;0.50;;;9.50;99.90;;;;;;5099369;28;20321;-82
2022/09/27 00:42:39;;;;;;;0.70;0.70;;;9.60;99.90;;;;;;5101473;28;20205;-82
2022/09/27 00:45:13;;;;;;;0.60;0.60;;;9.60;99.90;;;;;;5099452;28;20170;-83
2022/09/27 00:47:47;;;;;;;0.60;0.60;;;9.60;99.90;;;;;;5099332;28;20189;-81
2022/09/27 00:50:28;;;;;;;0.50;0.50;;;9.50;99.90;;;;;;5100116;28;20260;-81
2022/09/27 00:53:10;;;;;;;0.60;0.60;;;9.60;99.90;;;;;;5101628;28;20318;-82
2022/09/27 00:55:43;;;;;;;0.50;0.50;;;9.60;99.90;;;;;;5102377;28;20654;-80
2022/09/27 00:58:12;;;;;;;0.50;0.50;;;9.60;99.90;;;;;;5101610;28;20665;-80
2022/09/27 01:00:43;;;;;;;0.50;0.50;;;9.60;99.90;;;;;;5104846;28;20198;-79
2022/09/27 01:03:13;;;;;;;0.50;0.50;;;9.50;99.90;;;;;;5106076;28;20207;-81
2022/09/27 01:05:39;;;;;;;0.70;0.70;;;9.60;99.90;;;;;;5104183;28;20235;-79
2022/09/27 01:08:05;;;;;;;0.67;0.67;;;9.60;99.90;;;;;;5107657;28;20253;-82
2022/09/27 01:10:39;;;;;;;0.50;0.50;;;9.60;99.90;;;;;;5117566;28;20177;-77
2022/09/27 01:13:16;;;;;;;0.60;0.60;;;9.60;99.90;;;;;;5117705;28;20229;-81
2022/09/27 01:15:57;;;;;;;0.60;0.60;;;9.60;99.90;;;;;;5117618;28;20216;-80
2022/09/27 01:18:55;;;;;;;0.60;0.60;;;9.60;99.90;;;;;;5114701;28;20206;-81
2022/09/27 01:21:59;;;;;;;0.60;0.60;;;9.60;99.90;;;;;;5109378;28;20192;-79
2022/09/27 01:24:53;;;;;;;0.70;0.70;;;9.60;99.90;;;;;;5107073;28;20201;-80
2022/09/27 01:27:33;;;;;;;0.60;0.60;;;9.60;99.90;;;;;;5068818;28;20265;-82
2022/09/27 01:30:18;;;;;;;0.50;0.50;;;9.70;99.90;;;;;;5108058;28;20193;-82
2022/09/27 01:32:59;;;;;;;0.53;0.53;;;9.70;99.90;;;;;;5104895;28;20173;-81
2022/09/27 01:35:49;;;;;;;0.50;0.50;;;9.70;99.90;;;;;;5105904;28;20173;-79
2022/09/27 01:38:24;;;;;;;0.60;0.60;;;9.70;99.90;;;;;;5106900;28;20209;-79
2022/09/27 01:41:13;;;;;;;0.60;0.60;;;9.60;99.90;;;;;;5109953;28;20236;-80
2022/09/27 01:43:52;;;;;;;0.57;0.57;;;9.70;99.90;;;;;;5106987;28;20173;-80
2022/09/27 01:46:24;;;;;;;0.60;0.60;;;9.70;99.90;;;;;;5104537;28;20182;-79
2022/09/27 01:48:51;;;;;;;0.60;0.60;;;9.70;99.90;;;;;;5103157;28;20190;-80
2022/09/27 01:51:22;;;;;;;0.50;0.50;;;9.80;99.90;;;;;;5104550;28;20589;-79
2022/09/27 01:53:52;;;;;;;0.60;0.60;;;9.80;99.90;;;;;;5103612;28;20173;-80
2022/09/27 01:56:25;;;;;;;0.50;0.50;;;9.80;99.90;;;;;;5105380;28;20237;-80
2022/09/27 01:59:06;;;;;;;0.50;0.50;;;9.80;99.90;;;;;;5103137;28;20202;-79
2022/09/27 02:01:34;;;;;;;0.50;0.50;;;9.80;99.90;;;;;;5103351;28;20177;-82
2022/09/27 02:04:01;;;;;;;0.50;0.50;;;9.80;99.90;;;;;;5100965;28;20165;-80
2022/09/27 02:06:38;;;;;;;0.60;0.60;;;9.80;99.90;;;;;;5105470;28;20186;-79
2022/09/27 02:09:10;;;;;;;0.60;0.60;;;9.80;99.90;;;;;;5105212;28;20196;-79
2022/09/27 02:11:44;;;;;;;0.50;0.50;;;9.80;99.90;;;;;;5106216;28;20177;-80
2022/09/27 02:14:21;;;;;;;0.60;0.60;;;9.80;99.90;;;;;;5104668;28;20170;-80
2022/09/27 02:16:51;;;;;;;0.63;0.63;;;9.80;99.90;;;;;;5103869;28;20169;-79
2022/09/27 02:19:43;;;;;;;0.60;0.60;;;9.80;99.90;;;;;;5101946;28;20259;-80
2022/09/27 02:22:23;;;;;;;0.50;0.50;;;9.90;99.90;;;;;;5101592;28;20193;-78
2022/09/27 02:24:55;;;;;;;0.60;0.60;;;9.90;99.90;;;;;;5098575;28;20192;-79
2022/09/27 02:27:27;;;;;;;0.60;0.60;;;9.90;99.90;;;;;;5100091;28;20178;-78
2022/09/27 02:30:00;;;;;;;0.50;0.50;;;9.80;99.90;;;;;;5097765;28;20204;-79
2022/09/27 02:32:26;;;;;;;0.57;0.57;;;9.80;99.90;;;;;;5097612;28;20174;-79
2022/09/27 02:34:54;;;;;;;0.40;0.40;;;9.70;99.90;;;;;;5098866;28;20188;-79
2022/09/27 02:37:20;;;;;;;0.57;0.57;;;9.60;99.90;;;;;;5096022;28;20256;-79
2022/09/27 02:39:46;;;;;;;0.57;0.57;;;9.60;99.90;;;;;;5098094;28;20295;-79
2022/09/27 02:42:12;;;;;;;0.60;0.60;;;9.60;99.90;;;;;;5099119;28;20203;-79
2022/09/27 02:44:39;;;;;;;0.60;0.60;;;9.60;99.90;;;;;;5099848;28;20182;-79
2022/09/27 02:47:16;;;;;;;0.50;0.50;;;9.60;99.90;;;;;;5099197;28;20173;-79
2022/09/27 02:50:05;;;;;;;0.60;0.60;;;9.60;99.90;;;;;;5098787;28;20193;-78
2022/09/27 02:53:06;;;;;;;0.60;0.60;;;9.60;99.90;;;;;;5087824;28;20181;-79
2022/09/27 02:55:50;;;;;;;0.60;0.60;;;9.60;99.90;;;;;;5096612;28;20176;-78
2022/09/27 02:58:41;;;;;;;0.60;0.60;;;9.60;99.90;;;;;;5097412;28;20193;-79
2022/09/27 03:01:19;;;;;;;0.50;0.50;;;9.60;99.90;;;;;;5097982;28;20174;-78
2022/09/27 03:03:52;;;;;;;0.60;0.60;;;9.60;99.90;;;;;;5096301;28;20215;-78
2022/09/27 03:06:21;;;;;;;0.63;0.63;;;9.50;99.90;;;;;;5095653;28;20188;-79
2022/09/27 03:08:47;;;;;;;0.60;0.60;;;9.50;99.90;;;;;;5102885;28;20667;-79
2022/09/27 03:11:12;;;;;;;0.60;0.60;;;9.40;99.90;;;;;;5102636;28;20169;-79
2022/09/27 03:13:38;;;;;;;0.50;0.50;;;9.40;99.90;;;;;;5106178;28;20173;-79
2022/09/27 03:16:05;;;;;;;0.50;0.50;;;9.30;99.90;;;;;;5104812;28;20550;-79
2022/09/27 03:18:31;;;;;;;0.53;0.53;;;9.20;99.90;;;;;;5107448;28;20197;-79
2022/09/27 03:20:57;;;;;;;0.60;0.60;;;9.10;99.90;;;;;;5104417;28;20178;-78
2022/09/27 03:23:23;;;;;;;0.70;0.70;;;9.10;99.90;;;;;;5102217;28;20222;-78
2022/09/27 03:25:48;;;;;;;0.63;0.63;;;9.10;99.90;;;;;;5104542;28;20178;-78
2022/09/27 03:28:14;;;;;;;0.60;0.60;;;9.00;99.90;;;;;;5105905;28;20566;-78
2022/09/27 03:30:40;;;;;;;0.73;0.73;;;9.00;99.90;;;;;;5104792;28;20182;-79
2022/09/27 03:33:08;;;;;;;0.60;0.60;;;9.00;99.90;;;;;;5106327;28;20170;-78
2022/09/27 03:35:33;;;;;;;0.60;0.60;;;9.00;99.90;;;;;;5106056;28;20185;-78
2022/09/27 03:37:59;;;;;;;0.60;0.60;;;9.00;99.90;;;;;;5104465;28;20265;-78
2022/09/27 03:40:24;;;;;;;0.60;0.60;;;9.00;99.90;;;;;;5106466;28;20221;-78
2022/09/27 03:42:50;;;;;;;0.60;0.60;;;9.00;99.90;;;;;;5106259;28;20195;-79
2022/09/27 03:45:16;;;;;;;0.60;0.60;;;9.00;99.90;;;;;;5121404;28;20181;-79
2022/09/27 03:47:42;;;;;;;0.70;0.70;;;9.00;99.90;;;;;;5120789;28;20207;-80
2022/09/27 03:50:09;;;;;;;0.63;0.63;;;9.00;99.90;;;;;;5119071;28;20170;-79
2022/09/27 03:52:34;;;;;;;0.70;0.70;;;9.00;99.90;;;;;;5121194;28;20230;-79
2022/09/27 03:55:00;;;;;;;0.70;0.70;;;9.10;99.90;;;;;;5121028;28;20169;-79
2022/09/27 03:57:26;;;;;;;0.60;0.60;;;9.10;99.90;;;;;;5120397;28;20170;-79
2022/09/27 03:59:51;;;;;;;0.60;0.60;;;9.10;99.90;;;;;;5120928;28;20212;-79
2022/09/27 04:02:17;;;;;;;0.70;0.70;;;9.10;99.90;;;;;;5120948;28;20189;-78
2022/09/27 04:04:43;;;;;;;0.70;0.70;;;9.20;99.90;;;;;;5120799;28;20238;-80
2022/09/27 04:07:08;;;;;;;0.70;0.70;;;9.20;99.90;;;;;;5120537;28;20178;-80
2022/09/27 04:09:36;;;;;;;0.67;0.67;;;9.20;99.90;;;;;;5120113;28;20245;-79
2022/09/27 04:12:02;;;;;;;0.60;0.60;;;9.20;99.90;;;;;;5120512;28;20179;-79
2022/09/27 04:14:28;;;;;;;0.70;0.70;;;9.10;99.90;;;;;;5120407;28;20177;-82
2022/09/27 04:16:53;;;;;;;0.70;0.70;;;9.20;99.90;;;;;;5120578;28;20173;-80
2022/09/27 04:19:19;;;;;;;0.60;0.60;;;9.20;99.90;;;;;;5105176;28;20700;-81
2022/09/27 04:21:44;;;;;;;0.60;0.60;;;9.10;99.90;;;;;;5098976;28;20174;-80
2022/09/27 04:24:10;;;;;;;0.57;0.57;;;9.10;99.90;;;;;;5098316;28;20201;-80
2022/09/27 04:26:36;;;;;;;0.60;0.60;;;9.10;99.90;;;;;;5098624;28;20178;-80
2022/09/27 04:29:02;;;;;;;0.60;0.60;;;9.20;99.90;;;;;;5098581;28;20204;-83
2022/09/27 04:31:28;;;;;;;0.63;0.63;;;9.20;99.90;;;;;;5098990;28;20166;-81
2022/09/27 04:33:54;;;;;;;0.70;0.70;;;9.20;99.90;;;;;;5099360;28;20181;-80
2022/09/27 04:36:27;;;;;;;0.67;0.67;;;9.20;99.90;;;;;;5098778;28;20184;-81
2022/09/27 04:38:59;;;;;;;0.67;0.67;;;9.20;99.90;;;;;;5097510;28;20229;-79
2022/09/27 04:41:26;;;;;;;0.50;0.50;;;9.30;99.90;;;;;;5098085;28;20185;-79
2022/09/27 04:43:53;;;;;;;0.60;0.60;;;9.30;99.90;;;;;;5098176;28;20182;-80
2022/09/27 04:46:20;;;;;;;0.70;0.70;;;9.20;99.90;;;;;;5100342;28;20188;-80
2022/09/27 04:48:49;;;;;;;0.53;0.53;;;9.30;99.90;;;;;;5111612;28;20197;-82
2022/09/27 04:51:16;;;;;;;0.70;0.70;;;9.30;99.90;;;;;;5114792;28;20174;-80
2022/09/27 04:53:45;;;;;;;0.70;0.70;;;9.30;99.90;;;;;;5117172;28;20174;-81
2022/09/27 04:56:12;;;;;;;0.63;0.63;;;9.20;99.90;;;;;;5117077;28;20246;-80
2022/09/27 04:58:37;;;;;;;0.60;0.60;;;9.30;99.90;;;;;;5110196;28;20205;-81
2022/09/27 05:01:04;;;;;;;0.70;0.70;;;9.30;99.90;;;;;;5097310;28;20182;-82
2022/09/27 05:03:30;;;;;;;0.50;0.50;;;9.20;99.90;;;;;;5097336;28;20178;-81
2022/09/27 05:05:57;;;;;;;0.70;0.70;;;9.30;99.90;;;;;;5096965;28;20185;-81
2022/09/27 05:08:22;;;;;;;0.60;0.60;;;9.20;99.90;;;;;;5096302;28;20246;-81
2022/09/27 05:10:48;;;;;;;0.50;0.50;;;9.20;99.90;;;;;;5096113;28;20170;-81
2022/09/27 05:13:14;;;;;;;0.60;0.60;;;9.20;99.90;;;;;;5096438;28;20182;-83
2022/09/27 05:15:40;;;;;;;0.60;0.60;;;9.20;99.90;;;;;;5096121;28;20717;-81
2022/09/27 05:18:08;;;;;;;0.50;0.50;;;9.20;99.90;;;;;;5095764;28;20210;-79
2022/09/27 05:20:35;;;;;;;0.60;0.60;;;9.20;99.90;;;;;;5097224;28;20216;-81
2022/09/27 05:23:03;;;;;;;0.60;0.60;;;9.20;99.90;;;;;;5096322;28;20224;-81
2022/09/27 05:25:29;;;;;;;0.50;0.50;;;9.20;99.90;;;;;;5097567;28;20186;-79
2022/09/27 05:27:56;;;;;;;0.60;0.60;;;9.20;99.90;;;;;;5097526;28;20190;-79
2022/09/27 05:30:22;;;;;;;0.70;0.70;;;9.20;99.90;;;;;;5097205;28;20709;-78
2022/09/27 05:32:48;;;;;;;0.60;0.60;;;9.30;99.90;;;;;;5097859;28;20212;-78
2022/09/27 05:35:16;;;;;;;0.57;0.57;;;9.20;99.90;;;;;;5097001;28;20567;-78
2022/09/27 05:37:42;;;;;;;0.60;0.60;;;9.20;99.90;;;;;;5095156;28;20565;-78
2022/09/27 05:40:08;;;;;;;0.60;0.60;;;9.20;99.90;;;;;;5096384;28;20205;-79
2022/09/27 05:42:37;;;;;;;0.60;0.60;;;9.20;99.90;;;;;;5096326;28;20202;-79
2022/09/27 05:45:03;;;;;;;0.50;0.50;;;9.20;99.90;;;;;;5114577;28;20834;-79
2022/09/27 05:47:29;;;;;;;0.57;0.57;;;9.20;99.90;;;;;;5114356;28;20664;-79
2022/09/27 05:49:54;;;;;;;0.50;0.50;;;9.20;99.90;;;;;;5116568;28;20173;-79
2022/09/27 05:52:20;;;;;;;0.60;0.60;;;9.20;99.90;;;;;;5116111;28;20177;-78
2022/09/27 05:54:45;;;;;;;0.70;0.70;;;9.10;99.90;;;;;;5116288;28;20657;-82
2022/09/27 05:57:11;;;;;;;0.60;0.60;;;9.10;99.90;;;;;;5115642;28;20165;-77
2022/09/27 05:59:36;;;;;;;0.60;0.60;;;9.10;99.90;;;;;;5114818;28;20208;-78
2022/09/27 06:02:02;;;;;;;0.60;0.60;;;9.00;99.90;;;;;;5115629;28;20173;-78
2022/09/27 06:04:27;;;;;;;0.70;0.70;;;9.00;99.90;;;;;;5115383;28;20637;-79
2022/09/27 06:06:53;;;;;;;0.70;0.70;;;9.00;99.90;;;;;;5115430;28;20192;-80
2022/09/27 06:09:18;;;;;;;0.70;0.70;;;9.00;99.90;;;;;;5114963;28;20276;-79
2022/09/27 06:11:44;;;;;;;0.60;0.60;;;9.00;99.90;;;;;;5115232;28;20238;-79
2022/09/27 06:14:13;;;;;;;0.83;0.83;;;9.00;99.90;;;;;;5115350;28;20641;-82
2022/09/27 06:16:39;;;;;;;0.70;0.70;;;9.00;99.90;;;;;;5115173;28;20536;-78
2022/09/27 06:19:04;;;;;;;0.60;0.60;;;9.00;99.90;;;;;;5115360;28;20241;-79
2022/09/27 06:21:31;;;;;;;0.60;0.60;;;9.00;99.90;;;;;;5115145;28;20208;-79
2022/09/27 06:23:58;;;;;;;0.70;0.70;;;9.00;99.90;;;;;;5115133;28;20177;-79
2022/09/27 06:26:28;;;;;;;0.63;0.63;;;9.00;99.90;;;;;;5115013;28;20325;-79
2022/09/27 06:28:54;;;;;;;0.70;0.70;;;9.00;99.90;;;;;;5114417;28;20287;-78
2022/09/27 06:31:20;;;;;;;0.67;0.67;;;9.00;99.90;;;;;;5115245;28;20548;-78
2022/09/27 06:33:46;;;;;;;0.60;0.60;;;9.00;99.90;;;;;;5115045;28;20684;-80
2022/09/27 06:36:12;;;;;;;0.70;0.70;;;9.00;99.90;;;;;;5116231;28;20177;-78
2022/09/27 06:38:37;;;;;;;0.77;0.77;;;9.00;99.90;;;;;;5122866;22;20294;-76
2022/09/27 06:41:11;;;;;;;0.70;0.70;;;9.00;99.90;;;;;;5091999;28;20272;-75
2022/09/27 06:43:37;;;;;;;0.70;0.70;;;9.10;99.90;;;;;;5092001;28;20177;-75
2022/09/27 06:46:04;;;;;;;0.70;0.70;;;9.10;99.90;;;;;;5091295;28;20319;-75
2022/09/27 06:48:31;;;;;;;0.60;0.60;;;9.10;99.90;;;;;;5091067;28;20232;-76
2022/09/27 06:50:57;;;;;;;0.60;0.60;;;9.20;99.90;;;;;;5091937;28;20181;-74
2022/09/27 06:53:23;;;;;;;0.70;0.70;;;9.10;99.90;;;;;;5091530;28;20181;-74
2022/09/27 06:55:50;;;;;;;0.60;0.60;;;9.20;99.90;;;;;;5091573;28;20200;-74
2022/09/27 07:01:00;;;;;;;0.60;0.60;;;9.30;99.90;;;;;;5091881;28;20181;-74
2022/09/27 07:03:30;;;;;;;0.60;0.60;;;9.40;99.90;;;;;;5091632;28;20170;-74
2022/09/27 07:06:00;;;;;;;0.60;0.60;;;9.40;99.90;;;;;;5091717;28;20181;-74
2022/09/27 07:08:27;;;;;;;0.60;0.60;;;9.30;99.90;;;;;;5091097;28;20686;-73
2022/09/27 07:11:04;;;;;;;0.80;0.80;;;9.40;99.90;;;;;;5092165;28;20170;-74
2022/09/27 07:13:33;;;;;;;0.60;0.60;;;9.40;99.90;;;;;;5091874;28;20544;-74
2022/09/27 07:15:59;;;;;;;0.60;0.60;;;9.50;99.90;;;;;;5091637;28;20198;-75
2022/09/27 07:18:24;;;;;;;0.60;0.60;;;9.50;99.90;;;;;;5090766;28;20192;-74
2022/09/27 07:20:50;;;;;;;0.63;0.63;;;9.70;99.90;;;;;;5091473;28;20201;-74
2022/09/27 07:23:16;;;;;;;0.53;0.53;;;9.80;99.90;;;;;;5091366;28;20170;-74
2022/09/27 07:25:41;;;;;;;0.63;0.63;;;9.80;99.90;;;;;;5091400;28;20182;-75
2022/09/27 07:28:15;;;;;;;0.60;0.60;;;9.80;99.90;;;;;;5090673;28;20224;-74
2022/09/27 07:30:41;;;;;;;0.70;0.70;;;9.80;99.90;;;;;;5091154;28;20176;-75
2022/09/27 07:33:08;;;;;;;0.50;0.50;;;9.90;99.90;;;;;;5091323;28;20535;-75
2022/09/27 07:35:38;;;;;;;0.60;0.60;;;9.90;99.90;;;;;;5092706;28;20555;-75
2022/09/27 07:38:07;;;;;;;0.60;0.60;;;10.00;78.60;;;;;;5091134;28;20217;-74
2022/09/27 07:40:35;;;;;;;0.60;0.60;;;10.00;12.50;;;;;;5091521;28;20205;-74
2022/09/27 07:43:01;;;;;;;0.60;0.60;;;10.00;66.70;;;;;;5091443;28;20235;-74
2022/09/27 07:45:27;;;;;;;0.60;0.60;;;9.90;73.80;;;;;;5091531;28;20219;-74
2022/09/27 07:47:53;;;;;;;0.60;0.60;;;9.80;92.80;;;;;;5090613;28;20558;-74
2022/09/27 07:50:19;;;;;;;0.60;0.60;;;9.80;97.40;;;;;;5091450;28;20195;-74
2022/09/27 07:52:47;;;;;;;0.60;0.60;;;9.70;82.40;;;;;;5091388;28;20256;-74
2022/09/27 07:55:13;;;;;;;0.63;0.63;;;9.70;32.10;;;;;;5091260;28;20284;-75
2022/09/27 07:57:40;;;;;;;0.70;0.70;;;9.80;1.00;;;;;;5090390;28;20204;-74
2022/09/27 08:00:11;;;;;;;0.60;0.60;;;10.00;22.70;;;;;;5094750;28;20236;-74
2022/09/27 08:02:36;;;;;;;0.70;0.70;;;10.00;1.00;;;;;;5095021;28;20170;-74
2022/09/27 08:05:03;;;;;;;0.60;0.60;;;10.20;1.00;;;;;;5094686;28;20177;-74
2022/09/27 08:07:31;;;;;;;0.60;0.60;;;10.50;1.00;;;;;;5093839;28;20268;-74
2022/09/27 08:09:57;;;;;;;0.60;0.60;;;10.50;1.00;;;;;;5094518;28;20252;-74
2022/09/27 08:12:23;;;;;;;0.50;0.50;;;10.50;1.00;;;;;;5094625;28;20687;-74
2022/09/27 08:14:49;;;;;;;0.60;0.60;;;10.60;1.00;;;;;;5094780;28;20185;-74
2022/09/27 08:17:16;;;;;;;0.70;0.70;;;10.60;1.00;;;;;;5094865;28;20177;-75
2022/09/27 08:19:43;;;;;;;0.50;0.50;;;10.50;1.00;;;;;;5094030;28;20245;-74
2022/09/27 08:22:09;;;;;;;0.50;0.50;;;10.50;1.00;;;;;;5094522;28;20635;-74
2022/09/27 08:24:35;;;;;;;0.50;0.50;;;10.40;1.00;;;;;;5094617;28;20188;-74
2022/09/27 08:27:04;;;;;;;0.70;0.70;;;10.50;1.00;;;;;;5094373;28;20537;-74
2022/09/27 08:29:30;;;;;;;0.60;0.60;;;10.50;1.00;;;;;;5093921;28;20202;-74
2022/09/27 08:31:56;;;;;;;0.50;0.50;;;11.10;1.00;;;;;;5094611;28;20665;-74
2022/09/27 08:34:22;;;;;;;0.53;0.53;;;12.10;99.90;;;;;;5093908;28;20174;-73
2022/09/27 08:36:47;;;;;;;0.60;0.60;;;12.30;1.00;;;;;;5093928;28;20220;-75
2022/09/27 08:39:13;;;;;;;0.50;0.50;;;12.50;99.90;;;;;;5093282;28;20698;-74
2022/09/27 08:42:07;;;;;;;0.40;0.40;;;12.20;1.00;;;;;;5093941;28;20557;-74
2022/09/27 08:44:52;;;;;;;0.60;0.60;;;11.70;1.00;;;;;;5055777;28;20186;-74
2022/09/27 08:47:46;;;;;;;0.60;0.60;;;11.40;99.90;;;;;;5093741;28;20266;-74
2022/09/27 08:50:26;;;;;;;0.50;0.50;;;11.20;1.00;;;;;;5093928;28;20195;-74
2022/09/27 08:53:01;;;;;;;0.60;0.60;;;10.90;99.90;;;;;;5093744;28;20185;-74
2022/09/27 08:55:36;;;;;;;0.57;0.57;;;10.80;1.00;;;;;;5093489;28;20260;-74
2022/09/27 08:58:08;;;;;;;0.53;0.53;;;10.60;1.00;;;;;;5093012;28;20673;-74
2022/09/27 09:00:34;;;;;;;0.60;0.60;;;10.40;99.90;;;;;;5093534;28;20696;-74
2022/09/27 09:03:01;;;;;;;0.60;0.60;;;10.00;99.90;;;;;;5093467;28;20178;-73
2022/09/27 09:05:30;;;;;;;0.70;0.70;;;9.80;99.90;;;;;;5093287;28;20181;-74
2022/09/27 09:08:06;;;;;;;0.53;0.53;;;9.80;99.90;;;;;;5092695;28;20303;-74
2022/09/27 09:14:11;;;;;;;0.60;0.60;;;10.10;99.90;;;;;;5093388;28;20231;-74
2022/09/27 09:16:54;;;;;;;0.63;0.63;;;10.40;1.00;;;;;;5093480;28;20173;-74
2022/09/27 09:19:58;;;;;;;0.60;0.60;;;10.70;1.00;;;;;;5092655;28;20231;-74
2022/09/27 09:22:59;;;;;;;0.60;0.60;;;11.00;1.00;;;;;;5010774;28;20172;-74
2022/09/27 09:25:24;;;;;;;0.70;0.70;;;11.40;1.00;;;;;;5093130;28;20182;-74
2022/09/27 09:28:15;;;;;;;0.50;0.50;;;11.90;99.90;;;;;;5092262;28;20273;-75
2022/09/27 09:30:52;;;;;;;0.50;0.50;;;12.30;1.00;;;;;;5092865;28;20177;-75
2022/09/27 09:33:52;;;;;;;0.60;0.60;;;13.10;99.90;;;;;;5093071;28;20178;-75
2022/09/27 09:36:31;;;;;;;0.40;0.40;;;14.20;1.00;;;;;;5092829;28;20180;-75
2022/09/27 09:39:29;;;;;;;0.40;0.40;;;15.90;1.00;;;;;;5092190;28;20223;-75
2022/09/27 09:42:14;;;;;;;0.30;0.30;;;15.40;1.00;;;;;;5088648;28;20190;-74
2022/09/27 09:44:47;;;;;;;0.40;0.40;;;15.50;1.00;;;;;;5092597;28;20540;-74
2022/09/27 09:47:30;;;;;;;0.40;0.40;;;15.00;99.90;;;;;;5092555;28;20646;-75
2022/09/27 09:50:12;;;;;;;0.50;0.50;;;16.40;1.00;;;;;;5092919;28;20193;-76
2022/09/27 09:52:53;;;;;;;0.40;0.40;;;16.40;1.00;;;;;;5092767;28;20188;-76
2022/09/27 09:55:23;;;;;;;0.30;0.30;;;15.70;1.00;;;;;;5092680;28;20652;-75
2022/09/27 09:57:55;;;;;;;0.40;0.40;;;14.60;1.00;;;;;;5092022;28;20304;-74
2022/09/27 10:00:20;;;;;;;0.40;0.40;;;15.00;1.00;;;;;;5092558;28;20685;-75
2022/09/27 10:02:47;;;;;;;0.40;0.40;;;16.30;1.00;;;;;;5092585;28;20166;-75
2022/09/27 10:05:23;;;;;;;0.30;0.30;;;15.60;1.00;;;;;;5092212;28;20177;-75
2022/09/27 10:07:52;;;;;;;0.40;0.40;;;14.80;1.00;;;;;;5091831;28;20207;-75
2022/09/27 10:10:19;;;;;;;0.30;0.30;;;14.00;64.60;;;;;;5092259;28;20601;-74
2022/09/27 10:12:46;;;;;;;0.30;0.30;;;16.00;1.00;;;;;;5092094;28;20183;-74
2022/09/27 10:15:27;;;;;;;0.30;0.30;;;16.40;1.00;;;;;;5092508;28;20182;-76
2022/09/27 10:17:56;;;;;;;0.30;0.30;;;15.60;1.00;;;;;;5091814;28;20189;-77
2022/09/27 10:20:31;;;;;;;0.40;0.40;;;16.10;1.00;;;;;;5091827;28;20209;-76
2022/09/27 10:23:20;;;;;;;0.30;0.30;;;15.00;1.00;;;;;;5091788;28;20173;-76
2022/09/27 10:25:53;;;;;;;0.40;0.40;;;15.40;1.00;;;;;;5092464;28;20173;-75
2022/09/27 10:28:37;;;;;;;0.30;0.30;;;16.70;1.00;;;;;;5091490;28;20224;-75
2022/09/27 10:31:14;;;;;;;0.40;0.40;;;17.10;1.00;;;;;;5091907;28;20176;-76
2022/09/27 10:34:00;;;;;;;0.37;0.37;;;16.20;1.00;;;;;;5092175;28;20560;-75
2022/09/27 10:36:29;;;;;;;0.30;0.30;;;14.70;1.00;;;;;;5092022;28;20201;-74
2022/09/27 10:39:00;;;;;;;0.50;0.50;;;13.90;1.00;;;;;;5091085;28;20217;-74
2022/09/27 10:41:55;;;;;;;0.40;0.40;;;13.60;1.00;;;;;;5092020;28;20192;-74
2022/09/27 10:44:26;;;;;;;0.40;0.40;;;12.90;99.90;;;;;;5074711;28;20566;-74
2022/09/27 10:46:54;;;;;;;0.40;0.40;;;12.50;1.00;;;;;;5091937;28;20280;-74
2022/09/27 10:49:40;;;;;;;0.50;0.50;;;12.60;1.00;;;;;;5091113;28;20201;-74
2022/09/27 10:52:14;;;;;;;0.40;0.40;;;12.40;1.00;;;;;;5091620;28;20166;-74
2022/09/27 10:54:41;;;;;;;0.53;0.53;;;12.70;99.90;;;;;;5091858;28;20305;-75
2022/09/27 10:57:13;;;;;;;0.60;0.60;;;12.90;99.90;;;;;;5091749;28;20178;-74
2022/09/27 10:59:42;;;;;;;0.60;0.60;;;12.80;99.90;;;;;;5090841;28;20678;-75
2022/09/27 11:02:30;;;;;;;0.60;0.60;;;13.00;1.00;;;;;;5091758;28;20264;-75
2022/09/27 11:05:28;;;;;;;0.50;0.50;;;12.90;1.00;;;;;;5091378;28;20187;-74
2022/09/27 11:08:17;;;;;;;0.43;0.43;;;13.00;1.00;;;;;;5091082;28;20380;-75
2022/09/27 11:10:42;;;;;;;0.53;0.53;;;13.30;99.90;;;;;;5080630;28;20178;-74
2022/09/27 11:13:13;;;;;;;0.50;0.50;;;13.30;72.30;;;;;;5091660;28;20185;-74
2022/09/27 11:16:18;;;;;;;0.50;0.50;;;13.10;1.00;;;;;;5092549;28;20178;-74
2022/09/27 11:18:52;;;;;;;0.50;0.50;;;13.10;99.90;;;;;;5088509;28;20629;-75
2022/09/27 11:21:18;;;;;;;0.50;0.50;;;13.20;1.00;;;;;;5094165;28;20217;-75
2022/09/27 11:24:06;;;;;;;0.47;0.47;;;13.10;1.00;;;;;;5095542;28;20272;-75
2022/09/27 11:26:51;;;;;;;0.60;0.60;;;13.40;1.00;;;;;;5095666;28;20689;-75
2022/09/27 11:29:23;;;;;;;0.70;0.70;;;13.30;99.90;;;;;;5093741;28;20190;-75
2022/09/27 11:32:10;;;;;;;0.50;0.50;;;13.10;99.90;;;;;;5091529;28;20216;-75
2022/09/27 11:35:04;;;;;;;0.50;0.50;;;13.00;99.90;;;;;;5102288;28;20223;-74
2022/09/27 11:37:44;;;;;;;0.50;0.50;;;12.80;99.90;;;;;;5096371;28;20649;-74
2022/09/27 11:40:44;;;;;;;0.70;0.70;;;12.60;99.90;;;;;;5094926;28;20240;-74
2022/09/27 11:43:25;;;;;;;0.60;0.60;;;12.70;99.90;;;;;;5095245;28;20188;-74
2022/09/27 11:46:29;;;;;;;0.60;0.60;;;12.80;99.90;;;;;;5095010;28;20227;-75
2022/09/27 11:49:11;;;;;;;0.50;0.50;;;12.70;1.00;;;;;;5094563;28;20197;-74
2022/09/27 11:51:53;;;;;;;0.50;0.50;;;12.60;1.00;;;;;;5095185;28;20190;-75
2022/09/27 11:54:54;;;;;;;0.70;0.70;;;12.40;1.00;;;;;;5095016;28;20196;-74
2022/09/27 11:57:42;;;;;;;0.50;0.50;;;12.60;1.00;;;;;;5094748;28;20201;-73
2022/09/27 12:00:23;;;;;;;0.50;0.50;;;12.70;99.90;;;;;;5096987;28;20209;-75
2022/09/27 12:03:21;;;;;;;0.60;0.60;;;13.10;1.00;;;;;;5094716;28;20193;-75
2022/09/27 12:05:59;;;;;;;0.60;0.60;;;12.80;1.00;;;;;;5094848;28;20185;-75
2022/09/27 12:08:32;;;;;;;0.50;0.50;;;12.60;1.00;;;;;;5094167;28;20193;-75
2022/09/27 12:11:16;;;;;;;0.60;0.60;;;12.80;99.90;;;;;;5094717;28;20180;-75
2022/09/27 12:13:49;;;;;;;0.70;0.70;;;12.90;99.90;;;;;;5094850;28;20185;-75
2022/09/27 12:16:18;;;;;;;0.50;0.50;;;12.60;1.00;;;;;;5094829;28;20205;-75
2022/09/27 12:18:46;;;;;;;0.50;0.50;;;12.60;1.00;;;;;;5093869;28;20232;-74
2022/09/27 12:21:12;;;;;;;0.50;0.50;;;12.40;99.90;;;;;;5094556;28;20182;-75
2022/09/27 12:23:40;;;;;;;0.50;0.50;;;12.10;99.90;;;;;;5094287;28;20170;-74
2022/09/27 12:26:11;;;;;;;0.50;0.50;;;11.80;1.00;;;;;;5094210;28;20182;-75
2022/09/27 12:28:55;;;;;;;0.60;0.60;;;11.50;1.00;;;;;;5094101;28;20201;-75
2022/09/27 12:31:28;;;;;;;0.60;0.60;;;11.40;1.00;;;;;;5094253;28;20182;-74
2022/09/27 12:34:05;;;;;;;0.53;0.53;;;11.30;1.00;;;;;;5094279;28;20174;-74
2022/09/27 12:36:34;;;;;;;0.60;0.60;;;11.30;1.00;;;;;;5094028;28;20546;-74
2022/09/27 12:39:00;;;;;;;0.43;0.43;;;11.50;1.00;;;;;;5201250;22;20282;-80
2022/09/27 12:41:30;;;;;;;0.40;0.40;;;11.60;1.00;;;;;;5100333;28;20186;-82
2022/09/27 12:43:56;;;;;;;0.43;0.43;;;11.80;1.00;;;;;;5096545;28;20542;-82
2022/09/27 12:46:44;;;;;;;0.50;0.50;;;12.20;1.00;;;;;;5087445;28;20179;-84
2022/09/27 12:49:20;;;;;;;0.60;0.60;;;12.00;1.00;;;;;;5088290;28;20205;-83
2022/09/27 12:52:10;;;;;;;0.60;0.60;;;12.10;1.00;;;;;;5078749;28;20193;-82
2022/09/27 12:54:53;;;;;;;0.70;0.70;;;12.10;1.00;;;;;;5086162;28;20204;-81
2022/09/27 12:57:44;;;;;;;0.40;0.40;;;11.90;1.00;;;;;;5090023;28;20238;-84
2022/09/27 13:00:22;;;;;;;0.50;0.50;;;11.50;1.00;;;;;;5079860;28;20305;-82
2022/09/27 13:02:59;;;;;;;0.60;0.60;;;11.50;1.00;;;;;;5077204;28;20187;-80
2022/09/27 13:06:01;;;;;;;0.60;0.60;;;11.60;1.00;;;;;;5089082;28;20181;-82
2022/09/27 13:08:53;;;;;;;0.50;0.50;;;11.70;1.00;;;;;;5079401;28;20197;-82
2022/09/27 13:11:57;;;;;;;0.30;0.30;;;13.10;1.00;;;;;;5077160;28;20226;-82
2022/09/27 13:14:31;;;;;;;0.47;0.47;;;13.40;99.90;;;;;;5091014;28;20595;-80
2022/09/27 13:16:56;;;;;;;0.37;0.37;;;13.40;1.00;;;;;;5081593;28;20261;-81
2022/09/27 13:19:45;;;;;;;0.50;0.50;;;13.00;1.00;;;;;;5079612;28;20225;-82
2022/09/27 13:22:25;;;;;;;0.60;0.60;;;12.50;99.90;;;;;;5079437;28;20178;-81
2022/09/27 13:24:51;;;;;;;0.60;0.60;;;12.40;1.00;;;;;;5078325;28;20185;-80
2022/09/27 13:27:35;;;;;;;0.60;0.60;;;12.50;99.90;;;;;;5076557;28;20170;-81
2022/09/27 13:30:06;;;;;;;0.40;0.40;;;12.50;1.00;;;;;;5076638;28;20664;-80